Terminal Aerodrome Forecast
Issued by NWS Sioux Falls, SD

Home | Current Version | Previous Version | Graphics & Text | Print | Product List | Glossary On
Versions: 1 2 3 4 5 6 7 8 9 10 11 12 13 14 15 16 17 18 19
000
FTUS43 KFSD 221122
TAFFSD
TAF
KFSD 221122Z 2212/2312 VRB04KT P6SM SCT250
     FM221600 30010KT P6SM SCT200
     FM221900 30013G20KT P6SM FEW200
     FM230000 33010KT P6SM SCT200
     FM230500 36010KT P6SM SCT015 BKN150
     FM230700 02011KT P6SM BKN012=

USA.gov is the U.S. government's official web portal to all federal, state and local government web resources and services.